createdAt,value
2018-04-12T00:00:33.898Z,17.70
2018-04-12T00:03:02.455Z,17.70
2018-04-12T00:05:30.811Z,17.60
2018-04-12T00:07:58.981Z,17.60
2018-04-12T00:10:26.974Z,17.60
2018-04-12T00:12:54.526Z,17.50
2018-04-12T00:15:22.191Z,17.50
2018-04-12T00:17:50.535Z,17.50
2018-04-12T00:20:20.193Z,17.50
2018-04-12T00:22:47.702Z,17.50
2018-04-12T00:25:15.230Z,17.50
2018-04-12T00:27:43.589Z,17.40
2018-04-12T00:30:11.517Z,17.40
2018-04-12T00:32:39.045Z,17.40
2018-04-12T00:35:07.062Z,17.40
2018-04-12T00:37:34.580Z,17.40
2018-04-12T00:40:03.927Z,17.40
2018-04-12T00:42:31.492Z,17.40
2018-04-12T00:44:59.738Z,17.40
2018-04-12T00:47:28.029Z,17.40
2018-04-12T00:49:55.593Z,17.40
2018-04-12T00:52:23.154Z,17.40
2018-04-12T00:54:51.749Z,17.40
2018-04-12T00:57:19.907Z,17.40
2018-04-12T00:59:47.483Z,17.40
2018-04-12T01:02:15.915Z,17.40
2018-04-12T01:04:43.464Z,17.50
2018-04-12T01:07:11.019Z,17.50
2018-04-12T01:09:38.643Z,17.50
2018-04-12T01:12:06.202Z,17.50
2018-04-12T01:14:34.554Z,17.40
2018-04-12T01:17:02.140Z,17.40
2018-04-12T01:19:30.827Z,17.40
2018-04-12T01:21:58.576Z,17.50
2018-04-12T01:24:26.966Z,17.40
2018-04-12T01:26:54.534Z,17.40
2018-04-12T01:29:22.088Z,17.40
2018-04-12T01:31:49.654Z,17.40
2018-04-12T01:34:17.180Z,17.40
2018-04-12T01:36:45.503Z,17.40
2018-04-12T01:39:13.059Z,17.40
2018-04-12T01:41:40.594Z,17.40
2018-04-12T01:44:08.417Z,17.40
2018-04-12T01:46:36.041Z,17.30
2018-04-12T01:49:04.298Z,17.30
2018-04-12T01:51:32.077Z,17.30
2018-04-12T01:53:59.608Z,17.30
2018-04-12T01:56:27.135Z,17.30
2018-04-12T01:58:55.443Z,17.30
2018-04-12T02:01:23.877Z,17.30
2018-04-12T02:03:51.399Z,17.30
2018-04-12T02:06:18.914Z,17.30
2018-04-12T02:08:46.735Z,17.30
2018-04-12T02:11:15.207Z,17.30
2018-04-12T02:13:42.734Z,17.30
2018-04-12T02:16:11.126Z,17.30
2018-04-12T02:18:40.082Z,17.20
2018-04-12T02:21:07.622Z,17.20
2018-04-12T02:23:35.220Z,17.20
2018-04-12T02:26:03.330Z,17.20
2018-04-12T02:28:30.872Z,17.20
2018-04-12T02:30:59.850Z,17.20
2018-04-12T02:33:27.396Z,17.20
2018-04-12T02:35:54.967Z,17.20
2018-04-12T02:38:22.499Z,17.10
2018-04-12T02:40:50.056Z,17.10
2018-04-12T02:43:17.592Z,17.10
2018-04-12T02:45:45.138Z,17.10
2018-04-12T02:48:12.980Z,17.10
2018-04-12T02:50:40.735Z,17.10
2018-04-12T02:53:08.862Z,17.10
2018-04-12T02:55:36.379Z,17.10
2018-04-12T02:58:03.939Z,17.10
2018-04-12T03:00:32.260Z,17.00
2018-04-12T03:02:59.961Z,17.00
2018-04-12T03:05:27.501Z,17.00
2018-04-12T03:07:55.065Z,17.00
2018-04-12T03:10:22.583Z,17.00
2018-04-12T03:12:50.897Z,17.00
2018-04-12T03:15:18.562Z,17.00
2018-04-12T03:17:46.424Z,16.90
2018-04-12T03:20:14.565Z,16.90
2018-04-12T03:22:42.109Z,16.90
2018-04-12T03:25:10.118Z,16.90
2018-04-12T03:27:37.888Z,16.90
2018-04-12T03:30:05.898Z,16.90
2018-04-12T03:32:34.375Z,16.90
2018-04-12T03:35:02.396Z,16.80
2018-04-12T03:37:30.670Z,16.80
2018-04-12T03:39:58.196Z,16.80
2018-04-12T03:42:25.745Z,16.80
2018-04-12T03:44:53.282Z,16.80
2018-04-12T03:47:20.834Z,16.80
2018-04-12T03:49:48.547Z,16.80
2018-04-12T03:52:17.548Z,16.80
2018-04-12T03:54:46.245Z,16.80
2018-04-12T03:57:13.881Z,16.80
2018-04-12T03:59:42.173Z,16.80
2018-04-12T04:02:10.526Z,16.80
2018-04-12T04:04:38.832Z,16.80
2018-04-12T04:07:07.282Z,16.80
2018-04-12T04:09:35.655Z,16.80
2018-04-12T04:12:03.188Z,16.90
2018-04-12T04:14:41.525Z,16.80
2018-04-12T04:17:21.749Z,16.80
2018-04-12T04:20:01.057Z,16.90
2018-04-12T04:22:28.807Z,16.90
2018-04-12T04:24:57.099Z,16.80
2018-04-12T04:27:24.741Z,16.80
2018-04-12T04:29:53.158Z,16.90
2018-04-12T04:32:20.819Z,16.80
2018-04-12T04:34:48.379Z,16.90
2018-04-12T04:37:15.938Z,16.90
2018-04-12T04:39:44.265Z,16.80
2018-04-12T04:42:11.818Z,16.80
2018-04-12T04:44:39.933Z,16.80
2018-04-12T04:47:07.574Z,16.80
2018-04-12T04:49:35.110Z,16.90
2018-04-12T04:52:02.661Z,16.90
2018-04-12T04:54:30.223Z,16.90
2018-04-12T04:56:57.939Z,16.90
2018-04-12T04:59:25.510Z,16.90
2018-04-12T05:01:53.033Z,16.90
2018-04-12T05:04:20.560Z,16.90
2018-04-12T05:06:48.703Z,16.90
2018-04-12T05:09:16.230Z,17.00
2018-04-12T05:11:44.544Z,17.00
2018-04-12T05:14:12.121Z,17.00
2018-04-12T05:16:40.167Z,17.00
2018-04-12T05:19:08.547Z,17.00
2018-04-12T05:21:36.123Z,17.10
2018-04-12T05:24:03.688Z,17.10
2018-04-12T05:26:31.290Z,17.10
2018-04-12T05:28:59.619Z,17.20
2018-04-12T05:31:27.175Z,17.10
2018-04-12T05:33:55.559Z,17.20
2018-04-12T05:36:23.098Z,17.20
2018-04-12T05:38:50.631Z,17.20
2018-04-12T05:41:18.483Z,17.30
2018-04-12T05:43:46.062Z,17.30
2018-04-12T05:46:13.609Z,17.40
2018-04-12T05:48:41.168Z,17.40
2018-04-12T05:51:09.389Z,17.50
2018-04-12T05:53:36.995Z,17.50
2018-04-12T05:56:04.545Z,17.60
2018-04-12T05:58:32.218Z,17.60
2018-04-12T06:01:01.401Z,17.70
2018-04-12T06:03:28.920Z,17.70
2018-04-12T06:05:56.460Z,17.70
2018-04-12T06:08:28.107Z,17.80
2018-04-12T06:10:55.647Z,17.80
2018-04-12T06:13:23.262Z,17.80
2018-04-12T06:15:50.790Z,17.90
2018-04-12T06:18:18.963Z,17.90
2018-04-12T06:20:46.535Z,18.00
2018-04-12T06:23:15.737Z,18.10
2018-04-12T06:25:43.283Z,18.10
2018-04-12T06:28:11.127Z,18.10
2018-04-12T06:30:39.202Z,18.20
2018-04-12T06:33:06.745Z,18.20
2018-04-12T06:35:34.287Z,18.30
2018-04-12T06:38:01.865Z,18.30
2018-04-12T06:40:29.891Z,18.40
2018-04-12T06:42:57.490Z,18.40
2018-04-12T06:45:25.071Z,18.40
2018-04-12T06:47:52.586Z,18.50
2018-04-12T06:50:20.671Z,18.60
2018-04-12T06:52:48.191Z,18.60
2018-04-12T06:55:16.501Z,18.70
2018-04-12T06:57:44.060Z,18.70
2018-04-12T07:00:11.591Z,18.80
2018-04-12T07:02:40.686Z,19.00
2018-04-12T07:05:09.475Z,19.00
2018-04-12T07:07:37.067Z,19.00
2018-04-12T07:10:04.617Z,19.10
2018-04-12T07:12:32.773Z,19.20
2018-04-12T07:15:01.075Z,19.30
2018-04-12T07:17:28.756Z,19.30
2018-04-12T07:19:56.285Z,19.40
2018-04-12T07:22:23.850Z,19.50
2018-04-12T07:24:51.375Z,19.60
2018-04-12T07:27:19.230Z,19.70
2018-04-12T07:29:46.765Z,19.70
2018-04-12T07:32:14.757Z,19.80
2018-04-12T07:34:42.347Z,19.80
2018-04-12T07:37:10.652Z,19.90
2018-04-12T07:39:38.197Z,20.00
2018-04-12T07:42:06.093Z,20.00
2018-04-12T07:44:34.512Z,20.10
2018-04-12T07:47:02.062Z,20.20
2018-04-12T07:49:30.572Z,20.20
2018-04-12T07:51:59.267Z,20.30
2018-04-12T07:54:27.901Z,20.40
2018-04-12T07:56:55.449Z,20.40
2018-04-12T07:59:22.997Z,20.40
2018-04-12T08:01:50.530Z,20.40
2018-04-12T08:04:18.097Z,20.40
2018-04-12T08:06:45.658Z,20.40
2018-04-12T08:09:13.201Z,20.50
2018-04-12T08:11:42.250Z,20.60
2018-04-12T08:14:09.769Z,20.60
2018-04-12T08:16:37.338Z,20.60
2018-04-12T08:19:04.892Z,20.60
2018-04-12T08:21:32.446Z,20.60
2018-04-12T08:24:01.281Z,20.60
2018-04-12T08:26:28.866Z,20.60
2018-04-12T08:28:56.401Z,20.70
2018-04-12T08:31:24.182Z,20.70
2018-04-12T08:33:51.752Z,20.70
2018-04-12T08:36:19.893Z,20.70
2018-04-12T08:38:47.523Z,20.70
2018-04-12T08:41:15.908Z,20.80
2018-04-12T08:43:43.450Z,20.80
2018-04-12T08:46:11.493Z,20.80
2018-04-12T08:48:39.618Z,20.80
2018-04-12T08:51:07.241Z,20.90
2018-04-12T08:53:35.545Z,20.80
2018-04-12T08:56:03.071Z,20.80
2018-04-12T08:58:30.644Z,20.90
2018-04-12T09:00:58.934Z,20.90
2018-04-12T09:03:27.252Z,21.00
2018-04-12T09:05:54.850Z,21.00
2018-04-12T09:08:23.917Z,21.10
2018-04-12T09:10:51.474Z,21.10
2018-04-12T09:13:19.025Z,21.10
2018-04-12T09:15:46.546Z,21.20
2018-04-12T09:18:14.121Z,21.20
2018-04-12T09:20:42.134Z,21.20
2018-04-12T09:23:10.190Z,21.30
2018-04-12T09:25:37.761Z,21.40
2018-04-12T09:28:05.346Z,21.40
2018-04-12T09:30:33.785Z,21.50
2018-04-12T09:33:01.353Z,21.50
2018-04-12T09:35:28.882Z,21.60
2018-04-12T09:37:56.472Z,21.60
2018-04-12T09:40:24.131Z,21.60
2018-04-12T09:42:51.706Z,21.70
2018-04-12T09:45:20.119Z,21.70
2018-04-12T09:47:47.875Z,21.80
2018-04-12T09:50:15.440Z,21.80
2018-04-12T09:52:43.702Z,21.90
2018-04-12T09:55:11.503Z,21.90
2018-04-12T09:57:39.168Z,22.00
2018-04-12T10:00:06.847Z,22.00
2018-04-12T10:05:37.710Z,22.20
2018-04-12T10:08:10.977Z,22.20
2018-04-12T10:10:40.112Z,22.30
2018-04-12T10:13:07.663Z,22.30
2018-04-12T10:15:35.782Z,22.40
2018-04-12T10:18:03.369Z,22.40
2018-04-12T10:20:30.927Z,22.50
2018-04-12T10:22:59.290Z,22.60
2018-04-12T10:25:26.875Z,22.60
2018-04-12T10:27:55.196Z,22.70
2018-04-12T10:30:23.651Z,22.70
2018-04-12T10:32:51.247Z,22.80
2018-04-12T10:35:18.770Z,22.90
2018-04-12T10:37:46.318Z,22.90
2018-04-12T10:40:14.691Z,23.00
2018-04-12T10:42:42.917Z,23.00
2018-04-12T10:45:11.993Z,23.10
2018-04-12T10:47:39.531Z,23.10
2018-04-12T10:50:07.977Z,23.10
2018-04-12T10:52:37.186Z,23.20
2018-04-12T10:55:04.746Z,23.20
2018-04-12T10:57:33.057Z,23.40
2018-04-12T11:00:02.380Z,23.30
2018-04-12T11:02:30.093Z,23.40
2018-04-12T11:04:57.849Z,23.50
2018-04-12T11:07:26.358Z,23.50
2018-04-12T11:09:53.930Z,23.60
2018-04-12T11:12:21.502Z,23.70
2018-04-12T11:14:50.135Z,23.70
2018-04-12T11:17:18.438Z,23.80
2018-04-12T11:19:46.883Z,23.80
2018-04-12T11:22:15.266Z,23.90
2018-04-12T11:24:43.059Z,24.00
2018-04-12T11:27:10.603Z,24.00
2018-04-12T11:29:40.666Z,24.10
2018-04-12T11:32:08.228Z,24.10
2018-04-12T11:34:35.793Z,24.10
2018-04-12T11:37:03.364Z,24.20
2018-04-12T11:39:30.968Z,24.30
2018-04-12T11:41:59.843Z,24.50
2018-04-12T11:44:29.621Z,24.50
2018-04-12T11:46:57.195Z,24.50
2018-04-12T11:49:24.708Z,24.60
2018-04-12T11:51:52.302Z,24.60
2018-04-12T11:54:19.858Z,24.60
2018-04-12T11:56:47.460Z,24.70
2018-04-12T11:59:15.796Z,24.70
2018-04-12T12:01:43.944Z,24.70
2018-04-12T12:04:12.252Z,24.80
2018-04-12T12:06:40.406Z,24.80
2018-04-12T12:09:08.004Z,24.90
2018-04-12T12:11:36.944Z,24.90
2018-04-12T12:14:04.506Z,25.00
2018-04-12T12:16:32.180Z,25.10
2018-04-12T12:19:01.297Z,25.10
2018-04-12T12:21:28.842Z,25.00
2018-04-12T12:23:57.286Z,25.00
2018-04-12T12:26:25.613Z,24.80
2018-04-12T12:28:54.524Z,24.80
2018-04-12T12:31:22.068Z,24.90
2018-04-12T12:33:50.198Z,24.80
2018-04-12T12:36:17.731Z,24.80
2018-04-12T12:38:45.771Z,24.80
2018-04-12T12:41:13.635Z,24.80
2018-04-12T12:43:41.219Z,24.70
2018-04-12T12:46:08.866Z,24.60
2018-04-12T12:48:36.406Z,24.60
2018-04-12T12:51:05.034Z,24.70
2018-04-12T12:53:32.597Z,24.70
2018-04-12T12:56:01.176Z,24.80
2018-04-12T12:58:28.702Z,24.80
2018-04-12T13:00:56.246Z,24.90
2018-04-12T13:03:23.798Z,25.00
2018-04-12T13:05:51.334Z,25.00
2018-04-12T13:08:19.391Z,25.00
2018-04-12T13:10:46.917Z,25.20
2018-04-12T13:13:14.453Z,25.20
2018-04-12T13:15:42.004Z,25.30
2018-04-12T13:18:09.527Z,25.40
2018-04-12T13:20:37.099Z,25.50
2018-04-12T13:23:04.631Z,25.60
2018-04-12T13:25:32.178Z,25.70
2018-04-12T13:28:01.382Z,25.80
2018-04-12T13:30:29.162Z,25.90
2018-04-12T13:32:56.781Z,25.90
2018-04-12T13:35:24.442Z,26.00
2018-04-12T13:37:51.993Z,26.10
2018-04-12T13:40:20.182Z,26.10
2018-04-12T13:42:48.170Z,26.10
2018-04-12T13:45:17.334Z,26.10
2018-04-12T13:47:45.297Z,26.20
2018-04-12T13:50:13.095Z,26.20
2018-04-12T13:52:48.298Z,26.20
2018-04-12T13:55:17.993Z,26.30
2018-04-12T13:57:47.122Z,26.30
2018-04-12T14:00:15.842Z,26.30
2018-04-12T14:02:43.401Z,26.20
2018-04-12T14:05:11.224Z,26.20
2018-04-12T14:07:38.921Z,26.30
2018-04-12T14:10:06.787Z,26.30
2018-04-12T14:12:35.007Z,26.30
2018-04-12T14:15:03.835Z,26.30
2018-04-12T14:17:31.448Z,26.30
2018-04-12T14:19:58.978Z,26.30
2018-04-12T14:22:27.150Z,26.30
2018-04-12T14:24:54.713Z,26.30
2018-04-12T14:27:22.349Z,26.20
2018-04-12T14:29:49.897Z,26.10
2018-04-12T14:32:17.417Z,26.10
2018-04-12T14:34:45.129Z,26.00
2018-04-12T14:37:12.704Z,26.10
2018-04-12T14:39:40.228Z,26.10
2018-04-12T14:42:07.763Z,26.10
2018-04-12T14:44:36.286Z,26.00
2018-04-12T14:47:03.809Z,26.00
2018-04-12T14:49:32.887Z,25.80
2018-04-12T14:52:01.935Z,25.80
2018-04-12T14:54:29.473Z,25.70
2018-04-12T14:56:57.876Z,25.60
2018-04-12T14:59:25.424Z,25.40
2018-04-12T15:01:53.127Z,25.40
2018-04-12T15:04:22.134Z,25.40
2018-04-12T15:06:49.789Z,25.40
2018-04-12T15:09:17.941Z,25.40
2018-04-12T15:11:46.142Z,25.40
2018-04-12T15:14:13.879Z,25.40
2018-04-12T15:16:41.391Z,25.40
2018-04-12T15:19:09.505Z,25.40
2018-04-12T15:21:37.064Z,25.40
2018-04-12T15:24:04.583Z,25.40
2018-04-12T15:26:33.519Z,25.40
2018-04-12T15:29:01.258Z,25.40
2018-04-12T15:31:28.799Z,25.40
2018-04-12T15:33:56.404Z,25.20
2018-04-12T15:36:24.461Z,25.10
2018-04-12T15:38:52.029Z,25.10
2018-04-12T15:41:19.551Z,25.10
2018-04-12T15:43:47.304Z,25.20
2018-04-12T15:46:14.877Z,25.20
2018-04-12T15:48:42.400Z,25.30
2018-04-12T15:51:09.983Z,25.30
2018-04-12T15:53:37.516Z,25.30
2018-04-12T15:56:05.262Z,25.20
2018-04-12T15:58:33.949Z,25.20
2018-04-12T16:01:01.531Z,25.20
2018-04-12T16:03:29.053Z,25.10
2018-04-12T16:05:57.841Z,25.10
2018-04-12T16:08:25.361Z,25.00
2018-04-12T16:10:52.913Z,25.00
2018-04-12T16:13:22.553Z,25.10
2018-04-12T16:15:50.092Z,25.10
2018-04-12T16:18:17.661Z,25.20
2018-04-12T16:20:45.200Z,25.10
2018-04-12T16:23:12.751Z,25.10
2018-04-12T16:25:40.381Z,25.10
2018-04-12T16:28:08.259Z,24.90
2018-04-12T16:30:36.654Z,24.80
2018-04-12T16:33:04.804Z,24.70
2018-04-12T16:35:32.589Z,24.60
2018-04-12T16:38:00.120Z,24.50
2018-04-12T16:40:28.731Z,24.40
2018-04-12T16:42:56.269Z,24.30
2018-04-12T16:45:23.829Z,24.10
2018-04-12T16:47:53.062Z,24.00
2018-04-12T16:50:20.639Z,23.90
2018-04-12T16:52:48.232Z,23.80
2018-04-12T16:55:15.897Z,23.70
2018-04-12T16:57:43.423Z,23.70
2018-04-12T17:00:11.038Z,23.60
2018-04-12T17:02:38.700Z,23.50
2018-04-12T17:05:07.090Z,23.50
2018-04-12T17:07:34.619Z,23.40
2018-04-12T17:10:02.173Z,23.40
2018-04-12T17:12:30.578Z,23.20
2018-04-12T17:14:58.847Z,23.10
2018-04-12T17:17:26.429Z,23.10
2018-04-12T17:19:54.622Z,22.80
2018-04-12T17:22:23.132Z,22.90
2018-04-12T17:24:51.399Z,22.80
2018-04-12T17:27:19.420Z,22.70
2018-04-12T17:29:47.405Z,22.70
2018-04-12T17:32:14.968Z,22.60
2018-04-12T17:34:42.526Z,22.40
2018-04-12T17:37:11.454Z,22.30
2018-04-12T17:39:39.954Z,22.30
2018-04-12T17:42:07.501Z,22.20
2018-04-12T17:44:36.277Z,22.00
2018-04-12T17:47:03.830Z,22.00
2018-04-12T17:49:33.221Z,22.00
2018-04-12T17:52:01.222Z,22.00
2018-04-12T17:54:29.570Z,21.90
2018-04-12T17:56:57.256Z,21.90
2018-04-12T17:59:27.213Z,21.80
2018-04-12T18:01:54.750Z,21.80
2018-04-12T18:04:23.078Z,21.80
2018-04-12T18:06:51.573Z,21.80
2018-04-12T18:09:19.149Z,21.80
2018-04-12T18:11:46.703Z,21.80
2018-04-12T18:14:14.836Z,21.90
2018-04-12T18:16:42.407Z,21.80
2018-04-12T18:19:09.957Z,21.80
2018-04-12T18:21:37.519Z,21.80
2018-04-12T18:24:05.114Z,21.80
2018-04-12T18:26:34.251Z,21.70
2018-04-12T18:29:02.377Z,21.60
2018-04-12T18:31:29.967Z,21.60
2018-04-12T18:33:57.597Z,21.60
2018-04-12T18:36:25.470Z,21.50
2018-04-12T18:38:53.622Z,21.60
2018-04-12T18:41:23.275Z,21.50
2018-04-12T18:43:52.725Z,21.60
2018-04-12T18:46:20.319Z,21.50
2018-04-12T18:48:47.893Z,21.60
2018-04-12T18:51:15.468Z,21.60
2018-04-12T18:53:43.794Z,21.50
2018-04-12T18:56:11.354Z,21.50
2018-04-12T18:58:39.927Z,21.50
2018-04-12T19:01:07.585Z,21.50
2018-04-12T19:03:35.861Z,21.40
2018-04-12T19:06:03.439Z,21.40
2018-04-12T19:08:30.963Z,21.40
2018-04-12T19:10:58.548Z,21.40
2018-04-12T19:13:26.112Z,21.30
2018-04-12T19:15:55.351Z,21.30
2018-04-12T19:18:23.206Z,21.30
2018-04-12T19:20:50.920Z,21.30
2018-04-12T19:23:18.449Z,21.20
2018-04-12T19:25:46.786Z,21.20
2018-04-12T19:28:14.327Z,21.20
2018-04-12T19:30:41.887Z,21.20
2018-04-12T19:33:10.172Z,21.20
2018-04-12T19:35:38.281Z,21.20
2018-04-12T19:38:05.802Z,21.10
2018-04-12T19:40:34.179Z,21.10
2018-04-12T19:43:01.773Z,21.10
2018-04-12T19:45:29.910Z,21.00
2018-04-12T19:47:57.890Z,21.00
2018-04-12T19:50:25.416Z,20.90
2018-04-12T19:52:53.070Z,20.90
2018-04-12T19:55:21.366Z,20.90
2018-04-12T19:57:48.960Z,20.80
2018-04-12T20:00:16.505Z,20.90
2018-04-12T20:02:44.036Z,20.90
2018-04-12T20:05:11.589Z,20.80
2018-04-12T20:07:40.769Z,20.80
2018-04-12T20:10:08.285Z,20.80
2018-04-12T20:12:36.596Z,20.80
2018-04-12T20:15:04.935Z,20.80
2018-04-12T20:17:36.968Z,20.80
2018-04-12T20:20:05.569Z,20.80
2018-04-12T20:22:33.717Z,20.70
2018-04-12T20:25:01.213Z,20.80
2018-04-12T20:27:28.779Z,20.80
2018-04-12T20:29:56.318Z,20.70
2018-04-12T20:32:24.609Z,20.70
2018-04-12T20:34:53.873Z,20.60
2018-04-12T20:37:21.804Z,20.60
2018-04-12T20:39:49.360Z,20.60
2018-04-12T20:42:16.890Z,20.60
2018-04-12T20:44:44.545Z,20.60
2018-04-12T20:47:12.546Z,20.60
2018-04-12T20:49:40.106Z,20.60
2018-04-12T20:52:07.636Z,20.60
2018-04-12T20:54:35.196Z,20.70
2018-04-12T20:57:03.752Z,20.60
2018-04-12T20:59:31.290Z,20.70
2018-04-12T21:01:58.860Z,20.70
2018-04-12T21:04:26.430Z,20.60
2018-04-12T21:06:54.805Z,20.60
2018-04-12T21:09:23.854Z,20.60
2018-04-12T21:11:52.831Z,20.60
2018-04-12T21:14:20.737Z,20.60
2018-04-12T21:16:48.312Z,20.60
2018-04-12T21:19:17.252Z,20.50
2018-04-12T21:21:45.040Z,20.50
2018-04-12T21:24:12.628Z,20.50
2018-04-12T21:26:41.593Z,20.50
2018-04-12T21:29:09.143Z,20.50
2018-04-12T21:31:37.332Z,20.40
2018-04-12T21:34:04.917Z,20.40
2018-04-12T21:36:32.557Z,20.40
2018-04-12T21:39:00.237Z,20.40
2018-04-12T21:41:29.808Z,20.30
2018-04-12T21:43:59.080Z,20.30
2018-04-12T21:46:29.710Z,20.30
2018-04-12T21:49:00.685Z,20.30
2018-04-12T21:51:31.418Z,20.20
2018-04-12T21:53:59.877Z,20.30
2018-04-12T21:56:27.770Z,20.20
2018-04-12T21:58:56.104Z,20.30
2018-04-12T22:01:25.055Z,20.10
2018-04-12T22:03:53.023Z,20.10
2018-04-12T22:06:20.811Z,20.10
2018-04-12T22:08:49.195Z,20.10
2018-04-12T22:11:16.736Z,20.10
2018-04-12T22:13:45.380Z,20.10
2018-04-12T22:16:12.964Z,20.10
2018-04-12T22:18:40.518Z,20.00
2018-04-12T22:21:08.049Z,20.10
2018-04-12T22:23:35.627Z,20.10
2018-04-12T22:26:03.204Z,20.10
2018-04-12T22:28:30.718Z,20.10
2018-04-12T22:30:59.361Z,20.10
2018-04-12T22:33:27.966Z,20.00
2018-04-12T22:35:57.414Z,20.10
2018-04-12T22:38:26.299Z,20.00
2018-04-12T22:40:54.874Z,20.10
2018-04-12T22:43:23.806Z,20.10
2018-04-12T22:45:53.124Z,20.00
2018-04-12T22:48:23.814Z,20.00
2018-04-12T22:50:52.774Z,20.00
2018-04-12T22:53:22.994Z,20.00
2018-04-12T22:55:51.618Z,20.00
2018-04-12T22:58:19.813Z,20.00
2018-04-12T23:00:48.657Z,20.00
2018-04-12T23:03:16.221Z,20.00
2018-04-12T23:05:44.537Z,20.00
2018-04-12T23:08:12.101Z,19.90
2018-04-12T23:10:40.841Z,19.90
2018-04-12T23:13:09.151Z,19.90
2018-04-12T23:15:36.710Z,19.90
2018-04-12T23:18:04.262Z,19.90
2018-04-12T23:20:33.425Z,19.90
2018-04-12T23:23:01.261Z,19.90
2018-04-12T23:25:28.773Z,19.90
2018-04-12T23:27:57.671Z,19.90
2018-04-12T23:30:25.580Z,19.90
2018-04-12T23:32:53.999Z,19.80
2018-04-12T23:35:22.295Z,19.80
2018-04-12T23:37:49.896Z,19.80
2018-04-12T23:40:17.454Z,19.80
2018-04-12T23:42:44.989Z,19.80
2018-04-12T23:45:13.459Z,19.80
2018-04-12T23:47:40.980Z,19.70
2018-04-12T23:50:08.596Z,19.70
2018-04-12T23:52:36.146Z,19.70
2018-04-12T23:55:03.682Z,19.70
2018-04-12T23:57:32.197Z,19.70
